Mollet del Valles, Spain
Current Conditions -  °F | °C
As of 4:30 AM on Sunday 25 Jan 2015 (Local Time) from LEBL Reporting Station
Clear Clear  
Wind Chill: 41°   Ceiling: Unl
Heat Index: 48°   Visibility: 6mi
Dew Point:   Wind: 23mph
Humidity: 20%   Direction: 330°NNW
Pressure: 30.03"   Gusts: 35mph
Location:  41.54°N, 2.21°E
Report Text: LEBL 250330Z 33020G30KT 280V360 CAVOK 09/M13 Q1017 NOSIG
Loading
Personal Weather Stations






























Interactive Weather Map New forecast layout! Learn more

10-Day Weather Forecast

Advertisements
Track Severe Weather on mobile